createdAt,value
2022-12-14T00:01:57.757Z,91.60
2022-12-14T00:04:25.951Z,91.60
2022-12-14T00:06:54.093Z,91.60
2022-12-14T00:09:22.401Z,91.70
2022-12-14T00:11:50.526Z,91.60
2022-12-14T00:14:18.671Z,91.70
2022-12-14T00:16:48.202Z,91.70
2022-12-14T00:19:16.605Z,91.70
2022-12-14T00:21:44.755Z,91.80
2022-12-14T00:24:12.927Z,91.70
2022-12-14T00:26:41.220Z,91.70
2022-12-14T00:29:09.362Z,91.70
2022-12-14T00:31:37.614Z,91.70
2022-12-14T00:34:07.189Z,91.70
2022-12-14T00:36:37.618Z,91.70
2022-12-14T00:39:06.307Z,91.80
2022-12-14T00:41:34.436Z,91.80
2022-12-14T00:44:02.581Z,91.90
2022-12-14T00:46:30.739Z,92.00
2022-12-14T00:48:58.957Z,92.00
2022-12-14T00:51:29.073Z,91.90
2022-12-14T00:53:57.236Z,91.90
2022-12-14T00:56:25.362Z,91.80
2022-12-14T00:58:54.182Z,91.80
2022-12-14T01:01:22.850Z,91.80
2022-12-14T01:04:11.651Z,91.80
2022-12-14T01:06:41.261Z,91.80
2022-12-14T01:09:09.398Z,91.80
2022-12-14T01:11:37.555Z,91.80
2022-12-14T01:14:06.156Z,91.80
2022-12-14T01:16:34.323Z,91.90
2022-12-14T01:19:03.116Z,91.90
2022-12-14T01:25:14.236Z,91.90
2022-12-14T01:27:42.659Z,91.90
2022-12-14T01:30:11.475Z,91.90
2022-12-14T01:32:39.645Z,91.80
2022-12-14T01:35:08.887Z,91.80
2022-12-14T01:37:37.004Z,91.80
2022-12-14T01:40:05.922Z,91.80
2022-12-14T01:42:36.565Z,91.80
2022-12-14T01:45:06.856Z,91.80
2022-12-14T01:47:41.755Z,91.70
2022-12-14T01:50:15.450Z,91.70
2022-12-14T01:52:46.458Z,91.70
2022-12-14T01:55:20.703Z,91.80
2022-12-14T01:57:53.840Z,91.80
2022-12-14T02:00:23.295Z,91.70
2022-12-14T02:02:55.970Z,91.70
2022-12-14T02:05:26.211Z,91.70
2022-12-14T02:07:56.685Z,91.60
2022-12-14T02:10:27.861Z,91.60
2022-12-14T02:13:03.102Z,91.60
2022-12-14T02:15:32.867Z,91.60
2022-12-14T02:18:03.257Z,91.50
2022-12-14T02:20:41.061Z,91.30
2022-12-14T02:23:33.162Z,91.30
2022-12-14T02:26:36.013Z,91.30
2022-12-14T02:29:27.928Z,91.10
2022-12-14T02:32:03.683Z,91.10
2022-12-14T02:34:41.000Z,91.10
2022-12-14T02:37:17.668Z,91.20
2022-12-14T02:39:55.190Z,91.20
2022-12-14T02:42:33.203Z,91.20
2022-12-14T02:45:08.154Z,91.20
2022-12-14T02:47:42.083Z,91.10
2022-12-14T02:50:18.114Z,91.20
2022-12-14T02:52:54.337Z,91.20
2022-12-14T02:55:28.231Z,91.20
2022-12-14T02:58:01.523Z,91.30
2022-12-14T03:00:33.492Z,91.30
2022-12-14T03:03:03.332Z,91.30
2022-12-14T03:05:31.890Z,91.40
2022-12-14T03:08:02.910Z,91.40
2022-12-14T03:10:37.791Z,91.50
2022-12-14T03:13:14.252Z,91.40
2022-12-14T03:15:48.516Z,91.40
2022-12-14T03:18:20.854Z,91.40
2022-12-14T03:20:52.839Z,91.40
2022-12-14T03:23:25.795Z,91.30
2022-12-14T03:25:59.734Z,91.40
2022-12-14T03:28:35.706Z,91.30
2022-12-14T03:31:08.250Z,91.20
2022-12-14T03:33:37.999Z,91.30
2022-12-14T03:36:12.028Z,91.30
2022-12-14T03:38:42.930Z,91.30
2022-12-14T03:41:18.137Z,91.30
2022-12-14T03:44:00.194Z,91.40
2022-12-14T03:46:37.521Z,91.40
2022-12-14T03:49:15.128Z,91.70
2022-12-14T03:51:53.689Z,91.70
2022-12-14T03:54:28.058Z,91.70
2022-12-14T03:57:00.388Z,91.70
2022-12-14T03:59:35.827Z,91.70
2022-12-14T04:02:11.397Z,91.70
2022-12-14T04:04:45.306Z,91.70
2022-12-14T04:07:16.045Z,91.60
2022-12-14T04:09:51.390Z,91.60
2022-12-14T04:12:46.535Z,91.60
2022-12-14T04:15:39.211Z,91.60
2022-12-14T04:18:31.953Z,91.60
2022-12-14T04:21:06.610Z,91.60
2022-12-14T04:23:58.151Z,91.70
2022-12-14T04:26:31.150Z,91.70
2022-12-14T04:29:20.103Z,92.00
2022-12-14T04:31:52.697Z,91.70
2022-12-14T04:34:27.498Z,91.70
2022-12-14T04:36:58.691Z,91.70
2022-12-14T04:39:32.547Z,91.70
2022-12-14T04:42:03.972Z,91.80
2022-12-14T04:44:36.543Z,91.80
2022-12-14T04:47:08.953Z,91.80
2022-12-14T04:49:43.782Z,91.70
2022-12-14T04:52:16.210Z,91.70
2022-12-14T04:54:50.413Z,91.70
2022-12-14T04:57:25.844Z,91.70
2022-12-14T04:59:55.016Z,91.70
2022-12-14T05:02:34.505Z,91.70
2022-12-14T05:05:11.626Z,91.70
2022-12-14T05:07:50.968Z,91.60
2022-12-14T05:10:27.079Z,91.70
2022-12-14T05:13:01.931Z,91.70
2022-12-14T05:15:36.689Z,91.60
2022-12-14T05:18:06.457Z,91.70
2022-12-14T05:20:35.974Z,91.70
2022-12-14T05:23:04.259Z,91.70
2022-12-14T05:25:32.763Z,91.70
2022-12-14T05:28:00.951Z,91.60
2022-12-14T05:30:29.199Z,91.60
2022-12-14T05:32:57.629Z,91.60
2022-12-14T05:35:26.965Z,91.40
2022-12-14T05:37:56.763Z,91.40
2022-12-14T05:40:25.050Z,91.40
2022-12-14T05:42:55.843Z,91.40
2022-12-14T05:45:24.469Z,91.40
2022-12-14T05:47:52.605Z,91.40
2022-12-14T05:50:20.772Z,91.40
2022-12-14T05:52:48.949Z,91.40
2022-12-14T05:55:18.489Z,91.40
2022-12-14T05:57:46.613Z,91.40
2022-12-14T06:00:16.426Z,91.40
2022-12-14T06:02:44.760Z,91.40
2022-12-14T06:05:12.981Z,91.40
2022-12-14T06:07:41.129Z,91.40
2022-12-14T06:10:09.850Z,91.40
2022-12-14T06:12:39.550Z,91.50
2022-12-14T06:15:08.792Z,91.50
2022-12-14T06:17:36.910Z,91.50
2022-12-14T06:20:05.835Z,91.50
2022-12-14T06:22:33.976Z,91.50
2022-12-14T06:25:02.366Z,91.40
2022-12-14T06:27:30.528Z,91.30
2022-12-14T06:30:00.200Z,91.40
2022-12-14T06:32:28.380Z,91.30
2022-12-14T06:34:56.494Z,91.40
2022-12-14T06:37:24.640Z,91.50
2022-12-14T06:39:54.550Z,91.50
2022-12-14T06:42:22.930Z,91.60
2022-12-14T06:44:51.189Z,91.60
2022-12-14T06:47:20.684Z,91.70
2022-12-14T06:49:48.895Z,91.70
2022-12-14T06:52:19.768Z,91.70
2022-12-14T07:14:40.832Z,92.10
2022-12-14T07:17:08.993Z,92.10
2022-12-14T07:19:37.290Z,92.00
2022-12-14T07:22:06.772Z,92.20
2022-12-14T07:24:35.455Z,92.10
2022-12-14T07:27:03.610Z,92.20
2022-12-14T07:29:34.818Z,92.20
2022-12-14T07:32:03.227Z,92.00
2022-12-14T07:34:31.499Z,92.10
2022-12-14T07:36:59.654Z,92.10
2022-12-14T07:39:29.415Z,92.20
2022-12-14T07:41:57.595Z,92.20
2022-12-14T07:44:25.777Z,92.00
2022-12-14T07:46:54.758Z,92.00
2022-12-14T07:49:23.431Z,92.20
2022-12-14T07:51:52.992Z,92.00
2022-12-14T07:54:21.244Z,91.70
2022-12-14T07:56:50.981Z,91.70
2022-12-14T07:59:19.371Z,91.70
2022-12-14T08:01:47.607Z,91.80
2022-12-14T08:04:17.573Z,92.00
2022-12-14T08:06:47.934Z,92.30
2022-12-14T08:09:16.716Z,92.40
2022-12-14T08:11:44.976Z,92.50
2022-12-14T08:14:17.177Z,92.40
2022-12-14T10:02:30.932Z,92.50
2022-12-14T10:05:13.540Z,93.40
2022-12-14T10:07:50.317Z,93.10
2022-12-14T10:10:25.106Z,92.70
2022-12-14T10:13:00.881Z,92.50
2022-12-14T10:15:33.667Z,92.40
2022-12-14T10:21:28.765Z,92.30
2022-12-14T10:24:01.799Z,92.00
2022-12-14T10:26:35.839Z,91.90
2022-12-14T10:29:12.764Z,91.90
2022-12-14T10:31:48.390Z,91.90
2022-12-14T10:34:20.434Z,91.80
2022-12-14T10:36:54.698Z,91.60
2022-12-14T10:39:33.212Z,91.60
2022-12-14T10:42:08.183Z,91.50
2022-12-14T10:44:44.538Z,91.60
2022-12-14T10:47:23.032Z,91.60
2022-12-14T10:49:57.550Z,91.60
2022-12-14T10:52:29.871Z,91.10
2022-12-14T10:55:03.965Z,90.70
2022-12-14T10:57:32.085Z,90.50
2022-12-14T11:00:09.896Z,90.50
2022-12-14T11:02:41.582Z,90.50
2022-12-14T11:05:23.564Z,90.50
2022-12-14T11:07:51.718Z,90.30
2022-12-14T11:10:24.696Z,90.00
2022-12-14T11:13:01.018Z,89.80
2022-12-14T11:15:34.141Z,89.10
2022-12-14T11:18:05.748Z,88.20
2022-12-14T11:20:35.151Z,88.20
2022-12-14T11:25:44.159Z,88.30
2022-12-14T11:28:36.008Z,87.80
2022-12-14T11:31:07.435Z,88.00
2022-12-14T11:33:39.988Z,88.50
2022-12-14T11:36:09.921Z,88.20
2022-12-14T11:41:11.830Z,87.30
2022-12-14T11:43:41.163Z,87.40
2022-12-14T11:46:09.420Z,88.20
2022-12-14T11:48:46.955Z,87.90
2022-12-14T11:51:15.613Z,88.60
2022-12-14T11:53:43.831Z,88.50
2022-12-14T12:31:55.897Z,88.60
2022-12-14T12:34:30.503Z,87.70
2022-12-14T12:37:25.841Z,87.80
2022-12-14T12:39:55.771Z,88.10
2022-12-14T12:42:33.362Z,88.20
2022-12-14T12:45:06.651Z,88.40
2022-12-14T12:47:47.216Z,88.70
2022-12-14T12:50:18.892Z,88.80
2022-12-14T12:53:02.320Z,89.00
2022-12-14T12:55:35.693Z,89.00
2022-12-14T12:58:09.790Z,88.70
2022-12-14T13:00:41.605Z,88.50
2022-12-14T13:03:17.824Z,88.40
2022-12-14T13:05:48.663Z,88.50
2022-12-14T13:08:25.177Z,88.20
2022-12-14T13:11:24.580Z,87.80
2022-12-14T13:13:51.007Z,87.80
2022-12-14T13:16:27.412Z,87.40
2022-12-14T13:19:24.975Z,87.80
2022-12-14T13:21:54.634Z,87.10
2022-12-14T13:24:25.021Z,86.90
2022-12-14T13:27:28.094Z,87.40
2022-12-14T13:30:16.267Z,86.40
2022-12-14T16:12:56.576Z,86.60
2022-12-14T16:15:26.759Z,89.20
2022-12-14T16:18:02.162Z,89.10
2022-12-14T16:20:34.942Z,89.50
2022-12-14T16:23:07.037Z,89.90
2022-12-14T16:25:36.768Z,90.00
2022-12-14T16:28:23.099Z,89.40
2022-12-14T16:30:57.521Z,89.60
2022-12-14T16:33:26.437Z,90.10
2022-12-14T16:36:08.144Z,90.10
2022-12-14T16:38:41.822Z,90.20
2022-12-14T16:41:10.939Z,90.40
2022-12-14T16:43:41.068Z,90.20
2022-12-14T16:46:27.297Z,90.20
2022-12-14T16:49:21.465Z,90.50
2022-12-14T16:52:08.665Z,90.50
2022-12-14T16:54:38.806Z,90.30
2022-12-14T16:57:18.335Z,90.30
2022-12-14T16:59:47.992Z,90.50
2022-12-14T17:02:31.836Z,90.30
2022-12-14T17:05:02.570Z,89.70
2022-12-14T17:07:34.217Z,89.70
2022-12-14T17:10:02.376Z,89.90
2022-12-14T17:12:30.534Z,90.30
2022-12-14T17:14:59.239Z,90.40
2022-12-14T17:17:33.268Z,90.50
2022-12-14T17:20:01.817Z,90.40
2022-12-14T17:22:33.440Z,90.40
2022-12-14T17:25:02.654Z,90.00
2022-12-14T17:27:31.417Z,90.10
2022-12-14T17:29:59.616Z,90.20
2022-12-14T17:32:31.359Z,90.20
2022-12-14T18:25:30.788Z,90.10
2022-12-14T18:28:01.399Z,88.40
2022-12-14T18:30:35.076Z,88.20
2022-12-14T18:33:07.347Z,88.10
2022-12-14T18:35:37.132Z,88.10
2022-12-14T18:38:05.266Z,88.10
2022-12-14T18:40:33.528Z,88.00
2022-12-14T18:43:03.180Z,87.90
2022-12-14T18:45:33.796Z,87.40
2022-12-14T18:48:02.904Z,87.70
2022-12-14T18:50:31.284Z,87.80
2022-12-14T18:52:59.489Z,87.50
2022-12-14T18:55:29.212Z,87.40
2022-12-14T18:57:59.495Z,87.40
2022-12-14T19:00:32.680Z,87.30
2022-12-14T19:03:02.022Z,87.50
2022-12-14T19:05:32.006Z,87.50
2022-12-14T19:08:01.054Z,87.50
2022-12-14T19:10:31.286Z,87.40
2022-12-14T19:13:00.192Z,87.30
2022-12-14T19:15:32.783Z,87.60
2022-12-14T19:18:01.836Z,87.80
2022-12-14T19:20:30.593Z,87.90
2022-12-14T19:22:59.193Z,88.00
2022-12-14T19:25:27.429Z,88.10
2022-12-14T19:30:46.883Z,88.20
2022-12-14T19:33:15.109Z,88.20
2022-12-14T19:35:44.965Z,88.20
2022-12-14T19:38:15.691Z,88.30
2022-12-14T19:40:46.276Z,88.20
2022-12-14T19:43:14.547Z,88.20
2022-12-14T19:45:42.920Z,88.20
2022-12-14T19:48:13.581Z,88.30
2022-12-14T19:50:41.867Z,88.70
2022-12-14T19:53:10.053Z,87.70
2022-12-14T19:55:38.237Z,89.00
2022-12-14T19:58:06.499Z,88.50
2022-12-14T20:00:34.701Z,88.60
2022-12-14T20:03:02.983Z,88.60
2022-12-14T20:05:32.829Z,88.80
2022-12-14T20:08:00.990Z,89.00
2022-12-14T20:10:29.202Z,88.90
2022-12-14T20:12:57.315Z,88.90
2022-12-14T20:15:25.509Z,89.10
2022-12-14T20:17:54.072Z,89.30
2022-12-14T20:20:23.088Z,89.40
2022-12-14T20:22:52.738Z,89.70
2022-12-14T20:25:20.966Z,90.20
2022-12-14T20:27:49.222Z,90.20
2022-12-14T20:30:17.599Z,90.30
2022-12-14T20:32:49.132Z,90.00
2022-12-14T20:35:18.799Z,90.10
2022-12-14T20:37:47.376Z,90.10
2022-12-14T20:40:17.021Z,90.10
2022-12-14T20:42:45.214Z,90.20
2022-12-14T20:45:13.389Z,90.20
2022-12-14T20:47:41.526Z,90.20
2022-12-14T20:50:09.806Z,90.20
2022-12-14T20:52:38.323Z,90.20
2022-12-14T20:55:06.915Z,90.10
2022-12-14T20:57:36.489Z,90.10
2022-12-14T21:00:06.134Z,90.10
2022-12-14T21:02:34.437Z,90.10
2022-12-14T21:05:02.741Z,90.10
2022-12-14T21:07:32.743Z,90.10
2022-12-14T21:10:00.906Z,90.20
2022-12-14T21:12:29.144Z,90.20
2022-12-14T21:14:59.492Z,90.20
2022-12-14T21:17:29.305Z,90.20
2022-12-14T21:19:58.337Z,90.20
2022-12-14T21:22:28.331Z,90.20
2022-12-14T21:25:04.353Z,90.30
2022-12-14T21:27:35.071Z,90.20
2022-12-14T21:30:05.915Z,90.40
2022-12-14T21:32:36.496Z,90.40
2022-12-14T21:35:05.176Z,90.40
2022-12-14T21:37:33.443Z,90.40
2022-12-14T21:40:03.731Z,90.40
2022-12-14T21:42:31.076Z,90.40
2022-12-14T21:44:59.290Z,90.40
2022-12-14T21:47:30.657Z,90.40
2022-12-14T21:49:59.055Z,90.40
2022-12-14T21:52:28.845Z,90.60
2022-12-14T21:54:58.943Z,90.20
2022-12-14T21:57:49.902Z,90.20
2022-12-14T22:00:19.353Z,90.20
2022-12-14T22:02:49.184Z,90.30
2022-12-14T22:05:17.544Z,90.30
2022-12-14T22:07:46.728Z,90.40
2022-12-14T22:10:16.719Z,90.30
2022-12-14T22:12:48.195Z,90.40
2022-12-14T22:15:16.554Z,90.40
2022-12-14T22:17:44.702Z,90.40
2022-12-14T22:20:14.945Z,90.50
2022-12-14T22:22:43.117Z,90.50
2022-12-14T22:25:11.401Z,90.60
2022-12-14T22:27:39.720Z,90.60
2022-12-14T22:30:09.373Z,90.70
2022-12-14T22:32:37.565Z,90.80
2022-12-14T22:35:06.714Z,91.00
2022-12-14T22:37:36.606Z,91.30
2022-12-14T22:40:05.125Z,91.40
2022-12-14T22:42:34.905Z,91.60
2022-12-14T22:45:03.090Z,91.70
2022-12-14T22:47:31.233Z,91.90
2022-12-14T22:49:59.475Z,91.90
2022-12-14T22:52:27.654Z,91.80
2022-12-14T22:54:57.237Z,91.90
2022-12-14T22:57:25.584Z,91.90
2022-12-14T22:59:57.336Z,92.00
2022-12-14T23:02:26.047Z,92.10
2022-12-14T23:04:54.496Z,92.30
2022-12-14T23:07:22.795Z,92.30
2022-12-14T23:10:08.526Z,92.30
2022-12-14T23:12:55.528Z,92.20
2022-12-14T23:15:40.873Z,92.20
2022-12-14T23:18:27.014Z,92.10
2022-12-14T23:21:12.594Z,92.10
2022-12-14T23:23:59.246Z,92.10
2022-12-14T23:26:45.517Z,92.00
2022-12-14T23:29:32.467Z,92.00
2022-12-14T23:32:18.711Z,91.90
2022-12-14T23:35:04.178Z,91.80
2022-12-14T23:37:49.797Z,91.70
2022-12-14T23:40:36.050Z,91.70
2022-12-14T23:43:27.279Z,91.70
2022-12-14T23:46:14.623Z,91.60
2022-12-14T23:49:00.446Z,91.50
2022-12-14T23:51:46.372Z,91.50
2022-12-14T23:54:32.533Z,91.50
2022-12-14T23:57:18.135Z,91.50
